sensor_id;sensor_type;location;lat;lon;timestamp;pressure;altitude;pressure_sealevel;temperature;humidity
8318;BME280;4196;48.926;8.964;2022-12-18T00:01:57;100282.34;;;-13.33;100.00
8318;BME280;4196;48.926;8.964;2022-12-18T00:04:45;100288.66;;;-13.21;100.00
8318;BME280;4196;48.926;8.964;2022-12-18T00:07:32;100298.78;;;-13.19;100.00
8318;BME280;4196;48.926;8.964;2022-12-18T00:10:18;100285.78;;;-13.17;100.00
8318;BME280;4196;48.926;8.964;2022-12-18T00:13:05;100277.44;;;-13.17;100.00
8318;BME280;4196;48.926;8.964;2022-12-18T00:15:55;100277.31;;;-13.26;100.00
8318;BME280;4196;48.926;8.964;2022-12-18T00:18:42;100277.97;;;-13.20;100.00
8318;BME280;4196;48.926;8.964;2022-12-18T00:21:29;100284.84;;;-13.10;100.00
8318;BME280;4196;48.926;8.964;2022-12-18T00:24:16;100282.13;;;-13.04;100.00
8318;BME280;4196;48.926;8.964;2022-12-18T00:27:04;100301.47;;;-13.18;100.00
8318;BME280;4196;48.926;8.964;2022-12-18T00:29:51;100296.38;;;-13.26;100.00
8318;BME280;4196;48.926;8.964;2022-12-18T00:32:37;100294.28;;;-13.30;100.00
8318;BME280;4196;48.926;8.964;2022-12-18T00:35:23;100303.16;;;-13.25;100.00
8318;BME280;4196;48.926;8.964;2022-12-18T00:38:11;100304.56;;;-13.27;100.00
8318;BME280;4196;48.926;8.964;2022-12-18T00:40:58;100296.28;;;-13.19;100.00
8318;BME280;4196;48.926;8.964;2022-12-18T00:43:44;100304.34;;;-12.99;100.00
8318;BME280;4196;48.926;8.964;2022-12-18T00:46:31;100297.66;;;-13.07;100.00
8318;BME280;4196;48.926;8.964;2022-12-18T00:49:19;100299.47;;;-13.13;100.00
8318;BME280;4196;48.926;8.964;2022-12-18T00:52:06;100304.84;;;-13.17;100.00
8318;BME280;4196;48.926;8.964;2022-12-18T00:54:52;100300.03;;;-13.38;100.00
8318;BME280;4196;48.926;8.964;2022-12-18T00:57:39;100221.34;;;-13.59;100.00
8318;BME280;4196;48.926;8.964;2022-12-18T01:00:25;100287.69;;;-13.07;100.00
8318;BME280;4196;48.926;8.964;2022-12-18T01:03:15;100275.97;;;-13.15;100.00
8318;BME280;4196;48.926;8.964;2022-12-18T01:06:07;100258.78;;;-13.44;100.00
8318;BME280;4196;48.926;8.964;2022-12-18T01:08:54;100299.47;;;-13.36;100.00
8318;BME280;4196;48.926;8.964;2022-12-18T01:11:40;100304.69;;;-13.49;100.00
8318;BME280;4196;48.926;8.964;2022-12-18T01:14:29;100305.38;;;-13.43;100.00
8318;BME280;4196;48.926;8.964;2022-12-18T01:17:15;100307.50;;;-13.38;100.00
8318;BME280;4196;48.926;8.964;2022-12-18T01:20:03;100318.38;;;-13.45;100.00
8318;BME280;4196;48.926;8.964;2022-12-18T01:22:51;100306.50;;;-13.55;100.00
8318;BME280;4196;48.926;8.964;2022-12-18T01:25:38;100280.72;;;-13.55;100.00
8318;BME280;4196;48.926;8.964;2022-12-18T01:28:28;100298.91;;;-13.33;100.00
8318;BME280;4196;48.926;8.964;2022-12-18T01:31:17;100284.47;;;-13.06;100.00
8318;BME280;4196;48.926;8.964;2022-12-18T01:34:05;100295.03;;;-12.93;100.00
8318;BME280;4196;48.926;8.964;2022-12-18T01:36:53;100286.84;;;-12.92;100.00
8318;BME280;4196;48.926;8.964;2022-12-18T01:39:40;100295.41;;;-12.97;100.00
8318;BME280;4196;48.926;8.964;2022-12-18T01:42:26;100305.44;;;-13.04;100.00
8318;BME280;4196;48.926;8.964;2022-12-18T01:48:06;100297.09;;;-13.27;100.00
8318;BME280;4196;48.926;8.964;2022-12-18T01:50:55;100304.19;;;-13.23;100.00
8318;BME280;4196;48.926;8.964;2022-12-18T01:53:43;100290.19;;;-13.07;100.00
8318;BME280;4196;48.926;8.964;2022-12-18T01:56:30;100291.16;;;-12.98;100.00
8318;BME280;4196;48.926;8.964;2022-12-18T01:59:17;100291.25;;;-13.12;100.00
8318;BME280;4196;48.926;8.964;2022-12-18T02:02:03;100295.47;;;-13.04;100.00
8318;BME280;4196;48.926;8.964;2022-12-18T02:04:50;100294.38;;;-12.99;100.00
8318;BME280;4196;48.926;8.964;2022-12-18T02:13:52;100309.25;;;-13.37;100.00
8318;BME280;4196;48.926;8.964;2022-12-18T02:26:30;100302.41;;;-13.01;100.00
8318;BME280;4196;48.926;8.964;2022-12-18T02:29:55;100302.44;;;-13.24;100.00
8318;BME280;4196;48.926;8.964;2022-12-18T02:32:50;100306.69;;;-13.23;100.00
8318;BME280;4196;48.926;8.964;2022-12-18T02:35:40;100305.81;;;-13.24;100.00
8318;BME280;4196;48.926;8.964;2022-12-18T02:38:28;100319.00;;;-13.25;100.00
8318;BME280;4196;48.926;8.964;2022-12-18T02:41:21;100306.69;;;-13.23;100.00
8318;BME280;4196;48.926;8.964;2022-12-18T02:44:12;100316.31;;;-13.26;100.00
8318;BME280;4196;48.926;8.964;2022-12-18T02:47:01;100309.09;;;-13.16;100.00
8318;BME280;4196;48.926;8.964;2022-12-18T02:52:45;100305.06;;;-13.53;100.00
8318;BME280;4196;48.926;8.964;2022-12-18T02:55:58;100324.72;;;-13.10;100.00
8318;BME280;4196;48.926;8.964;2022-12-18T03:02:17;100316.00;;;-12.83;100.00
8318;BME280;4196;48.926;8.964;2022-12-18T03:07:58;100309.59;;;-12.88;100.00
8318;BME280;4196;48.926;8.964;2022-12-18T03:13:50;100331.13;;;-13.12;100.00
8318;BME280;4196;48.926;8.964;2022-12-18T03:16:39;100326.16;;;-12.89;100.00
8318;BME280;4196;48.926;8.964;2022-12-18T03:19:29;100318.09;;;-12.79;100.00
8318;BME280;4196;48.926;8.964;2022-12-18T03:22:20;100319.66;;;-12.96;100.00
8318;BME280;4196;48.926;8.964;2022-12-18T03:25:13;100325.56;;;-13.02;100.00
8318;BME280;4196;48.926;8.964;2022-12-18T03:28:02;100298.16;;;-13.25;100.00
8318;BME280;4196;48.926;8.964;2022-12-18T03:30:57;100323.84;;;-13.10;100.00
8318;BME280;4196;48.926;8.964;2022-12-18T03:33:55;100302.47;;;-13.31;100.00
8318;BME280;4196;48.926;8.964;2022-12-18T03:36:49;100319.88;;;-13.24;100.00
8318;BME280;4196;48.926;8.964;2022-12-18T03:39:36;100325.28;;;-13.35;100.00
8318;BME280;4196;48.926;8.964;2022-12-18T03:42:50;100321.53;;;-13.32;100.00
8318;BME280;4196;48.926;8.964;2022-12-18T03:45:42;100330.91;;;-13.29;100.00
8318;BME280;4196;48.926;8.964;2022-12-18T03:48:40;100320.53;;;-12.95;100.00
8318;BME280;4196;48.926;8.964;2022-12-18T03:51:41;100324.94;;;-12.93;100.00
8318;BME280;4196;48.926;8.964;2022-12-18T03:54:30;100325.19;;;-12.98;100.00
8318;BME280;4196;48.926;8.964;2022-12-18T03:57:28;100294.81;;;-13.10;100.00
8318;BME280;4196;48.926;8.964;2022-12-18T04:00:18;100323.50;;;-13.13;100.00
8318;BME280;4196;48.926;8.964;2022-12-18T04:03:24;100324.94;;;-13.38;100.00
8318;BME280;4196;48.926;8.964;2022-12-18T04:06:13;100310.59;;;-13.55;100.00
8318;BME280;4196;48.926;8.964;2022-12-18T04:09:02;100321.22;;;-13.42;100.00
8318;BME280;4196;48.926;8.964;2022-12-18T04:11:53;100311.41;;;-13.41;100.00
8318;BME280;4196;48.926;8.964;2022-12-18T04:14:40;100324.59;;;-13.19;100.00
8318;BME280;4196;48.926;8.964;2022-12-18T04:17:28;100296.38;;;-13.26;100.00
8318;BME280;4196;48.926;8.964;2022-12-18T04:20:17;100308.56;;;-13.13;100.00
8318;BME280;4196;48.926;8.964;2022-12-18T04:23:04;100313.41;;;-13.22;100.00
8318;BME280;4196;48.926;8.964;2022-12-18T04:25:52;100295.72;;;-13.32;100.00
8318;BME280;4196;48.926;8.964;2022-12-18T04:28:52;100314.31;;;-12.99;100.00
8318;BME280;4196;48.926;8.964;2022-12-18T04:31:38;100309.97;;;-12.93;100.00
8318;BME280;4196;48.926;8.964;2022-12-18T04:34:24;100281.63;;;-13.09;100.00
8318;BME280;4196;48.926;8.964;2022-12-18T04:37:12;100310.16;;;-13.14;100.00
8318;BME280;4196;48.926;8.964;2022-12-18T04:39:59;100296.81;;;-13.37;100.00
8318;BME280;4196;48.926;8.964;2022-12-18T04:42:55;100300.72;;;-13.32;100.00
8318;BME280;4196;48.926;8.964;2022-12-18T04:45:41;100287.94;;;-13.43;100.00
8318;BME280;4196;48.926;8.964;2022-12-18T04:48:28;100318.72;;;-13.19;100.00
8318;BME280;4196;48.926;8.964;2022-12-18T04:51:14;100306.56;;;-13.09;100.00
8318;BME280;4196;48.926;8.964;2022-12-18T04:54:00;100309.38;;;-12.83;100.00
8318;BME280;4196;48.926;8.964;2022-12-18T04:56:47;100287.03;;;-12.74;100.00
8318;BME280;4196;48.926;8.964;2022-12-18T05:03:59;100310.47;;;-12.26;100.00
8318;BME280;4196;48.926;8.964;2022-12-18T05:06:45;100302.03;;;-12.20;100.00
8318;BME280;4196;48.926;8.964;2022-12-18T05:09:32;100300.88;;;-12.30;100.00
8318;BME280;4196;48.926;8.964;2022-12-18T05:12:19;100302.28;;;-12.25;100.00
8318;BME280;4196;48.926;8.964;2022-12-18T05:15:05;100307.81;;;-12.28;100.00
8318;BME280;4196;48.926;8.964;2022-12-18T05:17:52;100315.25;;;-12.21;100.00
8318;BME280;4196;48.926;8.964;2022-12-18T05:20:38;100330.28;;;-12.12;100.00
8318;BME280;4196;48.926;8.964;2022-12-18T05:23:25;100324.34;;;-12.21;100.00
8318;BME280;4196;48.926;8.964;2022-12-18T05:26:17;100320.63;;;-12.40;100.00
8318;BME280;4196;48.926;8.964;2022-12-18T05:29:03;100349.44;;;-12.35;100.00
8318;BME280;4196;48.926;8.964;2022-12-18T05:31:50;100349.00;;;-12.47;100.00
8318;BME280;4196;48.926;8.964;2022-12-18T05:34:36;100347.22;;;-12.48;100.00
8318;BME280;4196;48.926;8.964;2022-12-18T05:37:23;100338.44;;;-12.45;100.00
8318;BME280;4196;48.926;8.964;2022-12-18T05:40:10;100342.97;;;-12.33;100.00
8318;BME280;4196;48.926;8.964;2022-12-18T05:42:57;100334.06;;;-12.31;100.00
8318;BME280;4196;48.926;8.964;2022-12-18T05:45:43;100336.69;;;-12.30;100.00
8318;BME280;4196;48.926;8.964;2022-12-18T05:48:30;100338.66;;;-12.27;100.00
8318;BME280;4196;48.926;8.964;2022-12-18T05:51:18;100346.94;;;-12.20;100.00
8318;BME280;4196;48.926;8.964;2022-12-18T05:54:05;100339.13;;;-12.23;100.00
8318;BME280;4196;48.926;8.964;2022-12-18T05:56:52;100319.50;;;-12.35;100.00
8318;BME280;4196;48.926;8.964;2022-12-18T05:59:38;100344.06;;;-12.15;100.00
8318;BME280;4196;48.926;8.964;2022-12-18T06:02:25;100353.00;;;-12.18;100.00
8318;BME280;4196;48.926;8.964;2022-12-18T06:05:12;100316.91;;;-12.28;100.00
8318;BME280;4196;48.926;8.964;2022-12-18T06:07:59;100337.56;;;-12.06;100.00
8318;BME280;4196;48.926;8.964;2022-12-18T06:10:49;100344.16;;;-12.07;100.00
8318;BME280;4196;48.926;8.964;2022-12-18T06:13:37;100341.16;;;-12.11;100.00
8318;BME280;4196;48.926;8.964;2022-12-18T06:16:25;100340.06;;;-12.06;100.00
8318;BME280;4196;48.926;8.964;2022-12-18T06:19:16;100345.38;;;-12.03;100.00
8318;BME280;4196;48.926;8.964;2022-12-18T06:22:03;100353.88;;;-12.17;100.00
8318;BME280;4196;48.926;8.964;2022-12-18T06:24:49;100346.81;;;-12.21;100.00
8318;BME280;4196;48.926;8.964;2022-12-18T06:27:35;100359.69;;;-12.09;100.00
8318;BME280;4196;48.926;8.964;2022-12-18T06:30:21;100356.72;;;-12.14;100.00
8318;BME280;4196;48.926;8.964;2022-12-18T06:33:08;100371.69;;;-11.98;100.00
8318;BME280;4196;48.926;8.964;2022-12-18T06:36:03;100374.75;;;-12.01;100.00
8318;BME280;4196;48.926;8.964;2022-12-18T06:38:50;100355.59;;;-12.09;100.00
8318;BME280;4196;48.926;8.964;2022-12-18T06:41:36;100370.34;;;-11.87;100.00
8318;BME280;4196;48.926;8.964;2022-12-18T06:44:24;100342.69;;;-12.05;100.00
8318;BME280;4196;48.926;8.964;2022-12-18T06:47:11;100363.75;;;-11.87;100.00
8318;BME280;4196;48.926;8.964;2022-12-18T06:49:58;100364.22;;;-11.98;100.00
8318;BME280;4196;48.926;8.964;2022-12-18T06:52:45;100366.31;;;-11.94;100.00
8318;BME280;4196;48.926;8.964;2022-12-18T06:55:32;100369.28;;;-11.89;100.00
8318;BME280;4196;48.926;8.964;2022-12-18T06:58:18;100347.22;;;-11.94;100.00
8318;BME280;4196;48.926;8.964;2022-12-18T07:01:07;100360.50;;;-12.02;100.00
8318;BME280;4196;48.926;8.964;2022-12-18T07:03:55;100383.13;;;-12.00;100.00
8318;BME280;4196;48.926;8.964;2022-12-18T07:06:42;100384.66;;;-11.94;100.00
8318;BME280;4196;48.926;8.964;2022-12-18T07:09:28;100376.41;;;-11.85;100.00
8318;BME280;4196;48.926;8.964;2022-12-18T07:12:14;100384.13;;;-11.91;100.00
8318;BME280;4196;48.926;8.964;2022-12-18T07:15:04;100378.66;;;-11.96;100.00
8318;BME280;4196;48.926;8.964;2022-12-18T07:17:51;100386.22;;;-11.87;100.00
8318;BME280;4196;48.926;8.964;2022-12-18T07:20:37;100390.53;;;-11.77;100.00
8318;BME280;4196;48.926;8.964;2022-12-18T07:23:23;100391.53;;;-11.84;100.00
8318;BME280;4196;48.926;8.964;2022-12-18T07:26:14;100401.63;;;-11.82;100.00
8318;BME280;4196;48.926;8.964;2022-12-18T07:29:01;100405.88;;;-11.74;100.00
8318;BME280;4196;48.926;8.964;2022-12-18T07:31:47;100411.22;;;-11.78;100.00
8318;BME280;4196;48.926;8.964;2022-12-18T07:34:35;100386.19;;;-11.71;100.00
8318;BME280;4196;48.926;8.964;2022-12-18T07:37:21;100378.72;;;-11.87;100.00
8318;BME280;4196;48.926;8.964;2022-12-18T07:40:08;100390.53;;;-11.77;100.00
8318;BME280;4196;48.926;8.964;2022-12-18T07:42:55;100396.59;;;-11.59;100.00
8318;BME280;4196;48.926;8.964;2022-12-18T07:45:42;100387.63;;;-11.41;100.00
8318;BME280;4196;48.926;8.964;2022-12-18T07:48:29;100385.03;;;-11.34;100.00
8318;BME280;4196;48.926;8.964;2022-12-18T07:51:16;100378.44;;;-11.34;100.00
8318;BME280;4196;48.926;8.964;2022-12-18T07:54:03;100384.97;;;-11.03;100.00
8318;BME280;4196;48.926;8.964;2022-12-18T07:56:51;100395.63;;;-10.97;100.00
8318;BME280;4196;48.926;8.964;2022-12-18T07:59:38;100392.50;;;-10.78;100.00
8318;BME280;4196;48.926;8.964;2022-12-18T08:02:24;100396.97;;;-10.67;100.00
8318;BME280;4196;48.926;8.964;2022-12-18T08:05:10;100405.78;;;-10.71;100.00
8318;BME280;4196;48.926;8.964;2022-12-18T08:07:58;100394.69;;;-10.81;100.00
8318;BME280;4196;48.926;8.964;2022-12-18T08:10:45;100403.06;;;-10.81;100.00
8318;BME280;4196;48.926;8.964;2022-12-18T08:13:32;100409.09;;;-10.79;100.00
8318;BME280;4196;48.926;8.964;2022-12-18T08:16:19;100412.41;;;-10.71;100.00
8318;BME280;4196;48.926;8.964;2022-12-18T08:19:06;100417.59;;;-10.61;100.00
8318;BME280;4196;48.926;8.964;2022-12-18T08:21:52;100387.53;;;-10.45;100.00
8318;BME280;4196;48.926;8.964;2022-12-18T08:24:39;100403.47;;;-10.27;100.00
8318;BME280;4196;48.926;8.964;2022-12-18T08:27:25;100410.78;;;-9.95;100.00
8318;BME280;4196;48.926;8.964;2022-12-18T08:30:15;100406.41;;;-9.89;100.00
8318;BME280;4196;48.926;8.964;2022-12-18T08:33:02;100406.41;;;-9.72;100.00
8318;BME280;4196;48.926;8.964;2022-12-18T08:35:48;100384.59;;;-9.82;100.00
8318;BME280;4196;48.926;8.964;2022-12-18T08:38:34;100393.00;;;-9.81;100.00
8318;BME280;4196;48.926;8.964;2022-12-18T08:41:21;100397.59;;;-9.68;100.00
8318;BME280;4196;48.926;8.964;2022-12-18T08:44:08;100409.28;;;-9.52;100.00
8318;BME280;4196;48.926;8.964;2022-12-18T08:47:26;100408.84;;;-9.30;100.00
8318;BME280;4196;48.926;8.964;2022-12-18T08:50:13;100405.16;;;-9.25;100.00
8318;BME280;4196;48.926;8.964;2022-12-18T08:53:01;100396.59;;;-9.10;100.00
8318;BME280;4196;48.926;8.964;2022-12-18T08:55:47;100385.22;;;-8.97;100.00
8318;BME280;4196;48.926;8.964;2022-12-18T08:58:35;100388.03;;;-8.94;100.00
8318;BME280;4196;48.926;8.964;2022-12-18T09:01:22;100370.28;;;-8.87;100.00
8318;BME280;4196;48.926;8.964;2022-12-18T09:04:09;100365.25;;;-8.79;100.00
8318;BME280;4196;48.926;8.964;2022-12-18T09:06:56;100371.03;;;-8.43;100.00
8318;BME280;4196;48.926;8.964;2022-12-18T09:09:42;100372.00;;;-8.24;100.00
8318;BME280;4196;48.926;8.964;2022-12-18T09:12:28;100364.00;;;-8.20;100.00
8318;BME280;4196;48.926;8.964;2022-12-18T09:15:15;100369.19;;;-8.27;100.00
8318;BME280;4196;48.926;8.964;2022-12-18T09:18:02;100347.97;;;-8.12;100.00
8318;BME280;4196;48.926;8.964;2022-12-18T09:20:48;100345.84;;;-7.98;100.00
8318;BME280;4196;48.926;8.964;2022-12-18T09:23:36;100321.91;;;-8.04;100.00
8318;BME280;4196;48.926;8.964;2022-12-18T09:26:23;100351.63;;;-7.81;100.00
8318;BME280;4196;48.926;8.964;2022-12-18T09:29:10;100358.19;;;-7.64;100.00
8318;BME280;4196;48.926;8.964;2022-12-18T09:31:56;100347.59;;;-7.51;100.00
8318;BME280;4196;48.926;8.964;2022-12-18T09:34:42;100344.25;;;-7.41;100.00
8318;BME280;4196;48.926;8.964;2022-12-18T09:37:29;100348.66;;;-7.20;100.00
8318;BME280;4196;48.926;8.964;2022-12-18T09:40:18;100346.00;;;-7.02;100.00
8318;BME280;4196;48.926;8.964;2022-12-18T09:43:06;100340.47;;;-6.98;100.00
8318;BME280;4196;48.926;8.964;2022-12-18T09:45:58;100346.88;;;-6.73;100.00
8318;BME280;4196;48.926;8.964;2022-12-18T09:48:49;100335.69;;;-6.66;100.00
8318;BME280;4196;48.926;8.964;2022-12-18T09:51:40;100332.41;;;-6.65;100.00
8318;BME280;4196;48.926;8.964;2022-12-18T09:54:53;100344.28;;;-6.54;100.00
8318;BME280;4196;48.926;8.964;2022-12-18T09:57:46;100340.13;;;-6.53;100.00
8318;BME280;4196;48.926;8.964;2022-12-18T10:00:34;100356.53;;;-6.38;100.00
8318;BME280;4196;48.926;8.964;2022-12-18T10:03:21;100359.56;;;-6.42;100.00
8318;BME280;4196;48.926;8.964;2022-12-18T10:06:14;100363.84;;;-6.41;100.00
8318;BME280;4196;48.926;8.964;2022-12-18T10:09:20;100374.09;;;-6.19;100.00
8318;BME280;4196;48.926;8.964;2022-12-18T10:15:13;100354.81;;;-6.19;100.00
8318;BME280;4196;48.926;8.964;2022-12-18T10:18:34;100368.69;;;-6.14;100.00
8318;BME280;4196;48.926;8.964;2022-12-18T10:25:04;100364.16;;;-6.08;100.00
8318;BME280;4196;48.926;8.964;2022-12-18T10:28:09;100358.84;;;-5.90;100.00
8318;BME280;4196;48.926;8.964;2022-12-18T10:30:56;100361.91;;;-5.84;100.00
8318;BME280;4196;48.926;8.964;2022-12-18T10:33:44;100358.63;;;-5.73;100.00
8318;BME280;4196;48.926;8.964;2022-12-18T10:36:30;100361.41;;;-5.60;100.00
8318;BME280;4196;48.926;8.964;2022-12-18T10:39:18;100358.22;;;-5.47;100.00
8318;BME280;4196;48.926;8.964;2022-12-18T10:42:23;100364.91;;;-5.37;100.00
8318;BME280;4196;48.926;8.964;2022-12-18T10:45:11;100358.47;;;-5.44;100.00
8318;BME280;4196;48.926;8.964;2022-12-18T10:47:59;100359.59;;;-5.40;100.00
8318;BME280;4196;48.926;8.964;2022-12-18T10:50:48;100359.34;;;-5.23;100.00
8318;BME280;4196;48.926;8.964;2022-12-18T10:54:01;100351.25;;;-5.19;100.00
8318;BME280;4196;48.926;8.964;2022-12-18T10:56:49;100339.75;;;-5.15;100.00
8318;BME280;4196;48.926;8.964;2022-12-18T10:59:50;100335.66;;;-5.03;100.00
8318;BME280;4196;48.926;8.964;2022-12-18T11:02:37;100341.03;;;-4.88;100.00
8318;BME280;4196;48.926;8.964;2022-12-18T11:05:27;100342.38;;;-4.71;100.00
8318;BME280;4196;48.926;8.964;2022-12-18T11:08:20;100333.59;;;-4.65;100.00
8318;BME280;4196;48.926;8.964;2022-12-18T11:11:20;100330.44;;;-4.40;100.00
8318;BME280;4196;48.926;8.964;2022-12-18T11:14:17;100309.88;;;-4.45;100.00
8318;BME280;4196;48.926;8.964;2022-12-18T11:17:05;100329.38;;;-4.32;100.00
8318;BME280;4196;48.926;8.964;2022-12-18T11:20:38;100329.25;;;-4.11;100.00
8318;BME280;4196;48.926;8.964;2022-12-18T11:23:25;100327.34;;;-3.92;100.00
8318;BME280;4196;48.926;8.964;2022-12-18T11:26:13;100324.19;;;-3.78;100.00
8318;BME280;4196;48.926;8.964;2022-12-18T11:29:15;100320.56;;;-3.70;100.00
8318;BME280;4196;48.926;8.964;2022-12-18T11:35:32;100310.91;;;-3.63;100.00
8318;BME280;4196;48.926;8.964;2022-12-18T11:38:24;100304.06;;;-3.65;100.00
8318;BME280;4196;48.926;8.964;2022-12-18T11:41:33;100295.72;;;-3.63;100.00
8318;BME280;4196;48.926;8.964;2022-12-18T11:47:47;100312.03;;;-3.48;100.00
8318;BME280;4196;48.926;8.964;2022-12-18T11:53:24;100300.16;;;-3.26;100.00
8318;BME280;4196;48.926;8.964;2022-12-18T11:56:29;100302.69;;;-3.26;100.00
8318;BME280;4196;48.926;8.964;2022-12-18T12:08:52;100283.41;;;-3.00;100.00
8318;BME280;4196;48.926;8.964;2022-12-18T12:23:55;100273.19;;;-2.77;97.44
8318;BME280;4196;48.926;8.964;2022-12-18T12:30:19;100269.13;;;-2.75;96.88
8318;BME280;4196;48.926;8.964;2022-12-18T12:39:48;100275.06;;;-2.37;98.51
8318;BME280;4196;48.926;8.964;2022-12-18T12:42:39;100278.97;;;-2.42;95.20
8318;BME280;4196;48.926;8.964;2022-12-18T12:45:55;100286.44;;;-2.44;94.81
8318;BME280;4196;48.926;8.964;2022-12-18T12:49:00;100294.91;;;-2.32;93.61
8318;BME280;4196;48.926;8.964;2022-12-18T12:51:56;100279.69;;;-2.32;93.20
8318;BME280;4196;48.926;8.964;2022-12-18T12:54:48;100275.44;;;-2.20;92.87
8318;BME280;4196;48.926;8.964;2022-12-18T13:04:04;100301.69;;;-1.81;95.67
8318;BME280;4196;48.926;8.964;2022-12-18T13:13:08;100291.75;;;-1.91;90.33
8318;BME280;4196;48.926;8.964;2022-12-18T13:16:06;100289.78;;;-1.82;91.63
8318;BME280;4196;48.926;8.964;2022-12-18T13:18:55;100271.59;;;-1.88;90.01
8318;BME280;4196;48.926;8.964;2022-12-18T13:21:53;100253.47;;;-2.19;90.74
8318;BME280;4196;48.926;8.964;2022-12-18T13:24:40;100263.94;;;-2.14;91.84
8318;BME280;4196;48.926;8.964;2022-12-18T13:36:30;100259.34;;;-1.82;90.05
8318;BME280;4196;48.926;8.964;2022-12-18T13:45:42;100243.72;;;-1.75;91.25
8318;BME280;4196;48.926;8.964;2022-12-18T13:48:34;100236.47;;;-1.95;90.70
8318;BME280;4196;48.926;8.964;2022-12-18T13:51:24;100217.34;;;-1.90;91.70
8318;BME280;4196;48.926;8.964;2022-12-18T13:54:33;100238.91;;;-1.97;91.49
8318;BME280;4196;48.926;8.964;2022-12-18T13:57:38;100238.22;;;-1.94;91.71
8318;BME280;4196;48.926;8.964;2022-12-18T14:00:31;100249.06;;;-1.97;91.75
8318;BME280;4196;48.926;8.964;2022-12-18T14:03:23;100243.38;;;-2.06;91.84
8318;BME280;4196;48.926;8.964;2022-12-18T14:06:13;100239.72;;;-2.23;92.27
8318;BME280;4196;48.926;8.964;2022-12-18T14:09:00;100233.75;;;-2.23;93.43
8318;BME280;4196;48.926;8.964;2022-12-18T14:11:49;100214.66;;;-2.43;94.19
8318;BME280;4196;48.926;8.964;2022-12-18T14:14:36;100247.09;;;-2.51;93.92
8318;BME280;4196;48.926;8.964;2022-12-18T14:17:23;100215.91;;;-2.75;95.00
8318;BME280;4196;48.926;8.964;2022-12-18T14:20:14;100252.66;;;-2.56;95.66
8318;BME280;4196;48.926;8.964;2022-12-18T14:23:01;100248.50;;;-2.68;96.09
8318;BME280;4196;48.926;8.964;2022-12-18T14:25:48;100252.34;;;-2.73;96.46
8318;BME280;4196;48.926;8.964;2022-12-18T14:28:43;100235.53;;;-2.84;97.06
8318;BME280;4196;48.926;8.964;2022-12-18T14:31:31;100242.16;;;-2.86;97.52
8318;BME280;4196;48.926;8.964;2022-12-18T14:34:17;100248.53;;;-2.91;97.83
8318;BME280;4196;48.926;8.964;2022-12-18T14:37:07;100225.69;;;-3.04;98.31
8318;BME280;4196;48.926;8.964;2022-12-18T14:40:03;100245.94;;;-3.04;98.28
8318;BME280;4196;48.926;8.964;2022-12-18T14:42:56;100239.47;;;-3.24;99.18
8318;BME280;4196;48.926;8.964;2022-12-18T14:45:44;100253.91;;;-3.23;100.00
8318;BME280;4196;48.926;8.964;2022-12-18T14:48:38;100253.03;;;-3.24;100.00
8318;BME280;4196;48.926;8.964;2022-12-18T14:51:28;100246.19;;;-3.25;100.00
8318;BME280;4196;48.926;8.964;2022-12-18T14:54:17;100228.16;;;-3.41;100.00
8318;BME280;4196;48.926;8.964;2022-12-18T14:57:06;100241.69;;;-3.29;100.00
8318;BME280;4196;48.926;8.964;2022-12-18T15:00:06;100240.81;;;-3.41;100.00
8318;BME280;4196;48.926;8.964;2022-12-18T15:02:55;100246.66;;;-3.42;100.00
8318;BME280;4196;48.926;8.964;2022-12-18T15:05:43;100247.19;;;-3.46;100.00
8318;BME280;4196;48.926;8.964;2022-12-18T15:08:37;100243.69;;;-3.48;100.00
8318;BME280;4196;48.926;8.964;2022-12-18T15:11:26;100222.66;;;-3.71;100.00
8318;BME280;4196;48.926;8.964;2022-12-18T15:14:32;100251.59;;;-3.55;100.00
8318;BME280;4196;48.926;8.964;2022-12-18T15:17:23;100222.53;;;-3.84;100.00
8318;BME280;4196;48.926;8.964;2022-12-18T15:20:13;100237.84;;;-3.82;100.00
8318;BME280;4196;48.926;8.964;2022-12-18T15:23:00;100238.03;;;-3.91;100.00
8318;BME280;4196;48.926;8.964;2022-12-18T15:26:06;100233.59;;;-4.05;100.00
8318;BME280;4196;48.926;8.964;2022-12-18T15:28:56;100250.09;;;-4.10;100.00
8318;BME280;4196;48.926;8.964;2022-12-18T15:32:10;100244.78;;;-4.14;100.00
8318;BME280;4196;48.926;8.964;2022-12-18T15:37:57;100239.41;;;-4.18;100.00
8318;BME280;4196;48.926;8.964;2022-12-18T15:40:43;100244.53;;;-4.28;100.00
8318;BME280;4196;48.926;8.964;2022-12-18T15:43:30;100257.63;;;-4.34;100.00
8318;BME280;4196;48.926;8.964;2022-12-18T15:46:22;100256.97;;;-4.53;100.00
8318;BME280;4196;48.926;8.964;2022-12-18T15:49:09;100223.50;;;-4.73;100.00
8318;BME280;4196;48.926;8.964;2022-12-18T15:51:58;100247.94;;;-4.62;100.00
8318;BME280;4196;48.926;8.964;2022-12-18T15:54:45;100246.94;;;-4.64;100.00
8318;BME280;4196;48.926;8.964;2022-12-18T15:58:05;100254.03;;;-4.70;100.00
8318;BME280;4196;48.926;8.964;2022-12-18T16:00:59;100231.78;;;-4.86;100.00
8318;BME280;4196;48.926;8.964;2022-12-18T16:03:49;100246.03;;;-4.86;100.00
8318;BME280;4196;48.926;8.964;2022-12-18T16:06:36;100252.88;;;-4.85;100.00
8318;BME280;4196;48.926;8.964;2022-12-18T16:09:42;100257.09;;;-4.74;100.00
8318;BME280;4196;48.926;8.964;2022-12-18T16:12:28;100250.31;;;-4.75;100.00
8318;BME280;4196;48.926;8.964;2022-12-18T16:15:15;100253.63;;;-4.64;100.00
8318;BME280;4196;48.926;8.964;2022-12-18T16:18:09;100257.78;;;-4.65;100.00
8318;BME280;4196;48.926;8.964;2022-12-18T16:20:55;100240.66;;;-4.69;100.00
8318;BME280;4196;48.926;8.964;2022-12-18T16:23:42;100228.44;;;-4.74;100.00
8318;BME280;4196;48.926;8.964;2022-12-18T16:26:31;100231.88;;;-4.62;100.00
8318;BME280;4196;48.926;8.964;2022-12-18T16:29:18;100236.47;;;-4.68;100.00
8318;BME280;4196;48.926;8.964;2022-12-18T16:32:05;100214.69;;;-4.78;100.00
8318;BME280;4196;48.926;8.964;2022-12-18T16:34:51;100243.09;;;-4.58;100.00
8318;BME280;4196;48.926;8.964;2022-12-18T16:37:39;100234.06;;;-4.67;100.00
8318;BME280;4196;48.926;8.964;2022-12-18T16:40:25;100210.50;;;-4.77;100.00
8318;BME280;4196;48.926;8.964;2022-12-18T16:43:11;100228.16;;;-4.67;100.00
8318;BME280;4196;48.926;8.964;2022-12-18T16:45:58;100228.63;;;-4.49;100.00
8318;BME280;4196;48.926;8.964;2022-12-18T16:48:45;100230.66;;;-4.45;100.00
8318;BME280;4196;48.926;8.964;2022-12-18T16:51:33;100214.56;;;-4.46;100.00